WetterOnline ( https://www.wetteronline.de )

Wetter aktuell Friesoythe

Aktuelles Wetter: Friesoythe-Altenoythe (6m)

6-stündlich | Neueste Meldungen
Ortszeit Temperatur Wetter
Mi, 05.10. 20:00 18.0° C bewölkt
Mi, 05.10. 14:00 16.7° C bedeckt
Mi, 05.10. 8:00 13.8° C wolkig
Mi, 05.10. 2:00 14.9° C bedeckt
Di, 04.10. 20:00 14.1° C wolkig
Di, 04.10. 14:00 17.0° C fast wolkenlos
Di, 04.10. 8:00 9.8° C bewölkt
Di, 04.10. 2:00 10.0° C bedeckt
Ortszeit Temperatur Wetter
Mi, 05.10. 20:30 18.4° C bedeckt
Mi, 05.10. 20:20 18.4° C bedeckt
Mi, 05.10. 20:10 18.2° C bedeckt
Mi, 05.10. 20:00 18.0° C bewölkt
Mi, 05.10. 19:50 18.0° C bewölkt
Mi, 05.10. 19:40 17.8° C bewölkt
Mi, 05.10. 19:30 17.7° C bewölkt
Mi, 05.10. 19:00 18.0° C bedeckt
Mi, 05.10. 18:30 18.2° C bewölkt
Mi, 05.10. 18:00 18.4° C bewölkt
Mi, 05.10. 17:30 18.4° C bewölkt
Ortszeit Relative Feuchte Sichtweite
Mi, 05.10. 20:00 73% 65 km
Mi, 05.10. 14:00 71% 55 km
Mi, 05.10. 8:00 84% 29 km
Mi, 05.10. 2:00 74% 50 km
Di, 04.10. 20:00 75% 35 km
Di, 04.10. 14:00 65% 50 km
Di, 04.10. 8:00 96% 16 km
Di, 04.10. 2:00 97% 30 km
Ortszeit Relative Feuchte Sichtweite
Mi, 05.10. 20:30 69% >70 km
Mi, 05.10. 20:20 69% -
Mi, 05.10. 20:10 71% -
Mi, 05.10. 20:00 73% 65 km
Mi, 05.10. 19:50 73% -
Mi, 05.10. 19:40 74% -
Mi, 05.10. 19:30 74% 60 km
Mi, 05.10. 19:00 72% >70 km
Mi, 05.10. 18:30 71% 60 km
Mi, 05.10. 18:00 69% 55 km
Mi, 05.10. 17:30 69% 55 km
Ortszeit Niederschlagsmenge Niederschlagsart
Mi, 05.10. 20:00 0.0 l/m2 in 12 Std. -
Mi, 05.10. 14:00 0.0 l/m2 in 6 Std. -
Mi, 05.10. 8:00 0.0 l/m2 in 12 Std. -
Mi, 05.10. 2:00 0.0 l/m2 in 6 Std. -
Di, 04.10. 20:00 0.0 l/m2 in 12 Std. -
Di, 04.10. 14:00 0.0 l/m2 in 6 Std. -
Di, 04.10. 8:00 0.0 l/m2 in 12 Std. -
Di, 04.10. 2:00 0.0 l/m2 in 6 Std. -
Ortszeit Niederschlagsmenge Niederschlagsart
Mi, 05.10. 20:30 0.0 l/m2 in 1 Std. -
Mi, 05.10. 20:20 keine Meldung -
Mi, 05.10. 20:10 keine Meldung -
Mi, 05.10. 20:00 0.0 l/m2 in 1 Std. -
Mi, 05.10. 19:50 keine Meldung -
Mi, 05.10. 19:40 keine Meldung -
Mi, 05.10. 19:30 0.0 l/m2 in 1 Std. -
Mi, 05.10. 19:00 0.0 l/m2 in 1 Std. -
Mi, 05.10. 18:30 0.0 l/m2 in 1 Std. -
Mi, 05.10. 18:00 0.0 l/m2 in 1 Std. -
Mi, 05.10. 17:30 0.0 l/m2 in 1 Std. -
Ortszeit Stärke Spitze Richtung
km/h Bft. km/h Grad Sektor
Mi, 05.10. 20:00 22 4 47 230° SW
Mi, 05.10. 14:00 26 4 44 220° SW
Mi, 05.10. 8:00 19 3 28 200° S
Mi, 05.10. 2:00 14 3 32 200° S
Di, 04.10. 20:00 9 2 33 200° S
Di, 04.10. 14:00 22 4 32 200° S
Di, 04.10. 8:00 7 2 14 180° S
Di, 04.10. 2:00 4 1 7 170° S
Ortszeit Stärke Spitze Richtung
km/h Bft. km/h Grad Sektor
Mi, 05.10. 20:30 30 5 44 220° SW
Mi, 05.10. 20:20 30 5 - 220° SW
Mi, 05.10. 20:10 25 4 - 230° SW
Mi, 05.10. 20:00 22 4 36 230° SW
Mi, 05.10. 19:50 22 4 - 230° SW
Mi, 05.10. 19:40 14 3 - 230° SW
Mi, 05.10. 19:30 15 3 22 220° SW
Mi, 05.10. 19:00 13 3 31 210° SW
Mi, 05.10. 18:30 14 3 32 200° S
Mi, 05.10. 18:00 19 3 41 210° SW
Mi, 05.10. 17:30 22 4 40 210° SW
Ortszeit Untergrenze Bedeckung Gattung
total tief tief mittel hoch
Mi, 05.10. 20:00 990 m 7/8 7/8 - - -
Mi, 05.10. 14:00 750 m 8/8 8/8 - - -
Mi, 05.10. 8:00 1020 m 7/8 4/8 - - -
Mi, 05.10. 2:00 1200 m 8/8 8/8 - - -
Di, 04.10. 20:00 7200 m 7/8 0/8 - - -
Di, 04.10. 14:00 10500 m 1/8 0/8 - - -
Di, 04.10. 8:00 5100 m 7/8 7/8 - - -
Di, 04.10. 2:00 3600 m 8/8 8/8 - - -
Ortszeit Bedeckungsgrad in Achtel und Wolkenuntergrenze
Mi, 05.10. 20:30 7(1020m) 8(1230m)
Mi, 05.10. 20:20 7(1020m) 8(1230m)
Mi, 05.10. 20:10 8
Mi, 05.10. 20:00 1(990m) 5(1290m) 7(1470m)
Mi, 05.10. 19:50 1(990m) 5(1290m) 7(1470m)
Mi, 05.10. 19:40 7
Mi, 05.10. 19:30 3(960m) 5(1260m) 7(1500m)
Mi, 05.10. 19:00 5(1110m) 8(1410m)
Mi, 05.10. 18:30 7(1230m)
Mi, 05.10. 18:00 7(1170m)
Mi, 05.10. 17:30 7(1080m)
Ortszeit Luftdruck NN (hPa) Tendenz (hPa in 3 Std.)
Mi, 05.10. 20:00 1012 + 0,7
Mi, 05.10. 14:00 1013 - 1,2
Mi, 05.10. 8:00 1014 - 0,8
Mi, 05.10. 2:00 1016 - 0,9
Di, 04.10. 20:00 1018 0,0
Di, 04.10. 14:00 1020 - 1,0
Di, 04.10. 8:00 1021 - 0,8
Di, 04.10. 2:00 1023 - 1,2
Ortszeit Luftdruck NN (hPa) Tendenz (hPa in 3 Std.)
Mi, 05.10. 20:30 1012 + 0,8
Mi, 05.10. 20:20 1012 keine Meldung
Mi, 05.10. 20:10 1012 keine Meldung
Mi, 05.10. 20:00 1012 + 0,7
Mi, 05.10. 19:50 1012 keine Meldung
Mi, 05.10. 19:40 1012 keine Meldung
Mi, 05.10. 19:30 1012 + 0,1
Mi, 05.10. 19:00 1012 - 0,4
Mi, 05.10. 18:30 1012 - 0,7
Mi, 05.10. 18:00 1011 - 0,9
Mi, 05.10. 17:30 1011 - 1,0
Ortszeit Schneehöhe (cm)
Mi, 05.10. 20:00 0
Mi, 05.10. 14:00 0
Mi, 05.10. 8:00 0
Mi, 05.10. 2:00 0
Di, 04.10. 20:00 0
Di, 04.10. 14:00 0
Di, 04.10. 8:00 0
Di, 04.10. 2:00 0
Ortszeit Schneehöhe (cm)
Mi, 05.10. 20:30 0
Mi, 05.10. 20:20 0
Mi, 05.10. 20:10 0
Mi, 05.10. 20:00 0
Mi, 05.10. 19:50 0
Mi, 05.10. 19:40 0
Mi, 05.10. 19:30 0
Mi, 05.10. 19:00 0
Mi, 05.10. 18:30 0
Mi, 05.10. 18:00 0
Mi, 05.10. 17:30 0
Link zu dieser Seite / Seite empfehlen

Das Wetter in ...